sensor_id;sensor_type;location;lat;lon;timestamp;P1;durP1;ratioP1;P2;durP2;ratioP2
7173;SDS011;3628;48.654;8.932;2023-09-12T00:00:46;6.72;;;3.88;;
7173;SDS011;3628;48.654;8.932;2023-09-12T00:03:12;6.88;;;4.18;;
7173;SDS011;3628;48.654;8.932;2023-09-12T00:05:37;7.20;;;3.83;;
7173;SDS011;3628;48.654;8.932;2023-09-12T00:08:03;7.90;;;3.92;;
7173;SDS011;3628;48.654;8.932;2023-09-12T00:10:29;6.47;;;4.13;;
7173;SDS011;3628;48.654;8.932;2023-09-12T00:12:55;5.63;;;4.05;;
7173;SDS011;3628;48.654;8.932;2023-09-12T00:15:21;6.55;;;4.40;;
7173;SDS011;3628;48.654;8.932;2023-09-12T00:17:46;6.45;;;3.75;;
7173;SDS011;3628;48.654;8.932;2023-09-12T00:20:14;5.85;;;3.63;;
7173;SDS011;3628;48.654;8.932;2023-09-12T00:22:40;4.65;;;3.85;;
7173;SDS011;3628;48.654;8.932;2023-09-12T00:25:05;6.15;;;3.55;;
7173;SDS011;3628;48.654;8.932;2023-09-12T00:27:31;8.57;;;4.32;;
7173;SDS011;3628;48.654;8.932;2023-09-12T00:29:57;5.85;;;3.83;;
7173;SDS011;3628;48.654;8.932;2023-09-12T00:32:22;8.48;;;4.18;;
7173;SDS011;3628;48.654;8.932;2023-09-12T00:34:48;7.03;;;4.03;;
7173;SDS011;3628;48.654;8.932;2023-09-12T00:37:13;10.40;;;4.55;;
7173;SDS011;3628;48.654;8.932;2023-09-12T00:39:39;7.55;;;4.47;;
7173;SDS011;3628;48.654;8.932;2023-09-12T00:42:05;9.98;;;4.45;;
7173;SDS011;3628;48.654;8.932;2023-09-12T00:44:32;6.63;;;4.78;;
7173;SDS011;3628;48.654;8.932;2023-09-12T00:46:58;9.88;;;4.20;;
7173;SDS011;3628;48.654;8.932;2023-09-12T00:49:26;6.20;;;4.40;;
7173;SDS011;3628;48.654;8.932;2023-09-12T00:51:53;6.88;;;4.40;;
7173;SDS011;3628;48.654;8.932;2023-09-12T00:54:19;10.07;;;4.45;;
7173;SDS011;3628;48.654;8.932;2023-09-12T00:56:45;5.63;;;4.25;;
7173;SDS011;3628;48.654;8.932;2023-09-12T00:59:11;9.90;;;3.90;;
7173;SDS011;3628;48.654;8.932;2023-09-12T01:01:37;8.98;;;4.32;;
7173;SDS011;3628;48.654;8.932;2023-09-12T01:04:03;8.35;;;4.93;;
7173;SDS011;3628;48.654;8.932;2023-09-12T01:06:29;6.15;;;4.70;;
7173;SDS011;3628;48.654;8.932;2023-09-12T01:08:56;7.35;;;4.13;;
7173;SDS011;3628;48.654;8.932;2023-09-12T01:11:22;7.10;;;4.13;;
7173;SDS011;3628;48.654;8.932;2023-09-12T01:13:49;6.40;;;4.43;;
7173;SDS011;3628;48.654;8.932;2023-09-12T01:16:14;5.65;;;4.40;;
7173;SDS011;3628;48.654;8.932;2023-09-12T01:18:40;9.38;;;4.22;;
7173;SDS011;3628;48.654;8.932;2023-09-12T01:23:53;8.50;;;4.30;;
7173;SDS011;3628;48.654;8.932;2023-09-12T01:29:19;6.50;;;4.20;;
7173;SDS011;3628;48.654;8.932;2023-09-12T01:31:47;9.05;;;4.97;;
7173;SDS011;3628;48.654;8.932;2023-09-12T01:34:14;4.25;;;3.80;;
7173;SDS011;3628;48.654;8.932;2023-09-12T01:36:39;7.30;;;4.40;;
7173;SDS011;3628;48.654;8.932;2023-09-12T01:39:05;9.85;;;4.50;;
7173;SDS011;3628;48.654;8.932;2023-09-12T01:41:31;5.50;;;4.00;;
7173;SDS011;3628;48.654;8.932;2023-09-12T01:44:00;7.88;;;3.80;;
7173;SDS011;3628;48.654;8.932;2023-09-12T01:46:27;8.02;;;4.38;;
7173;SDS011;3628;48.654;8.932;2023-09-12T01:48:55;8.68;;;3.70;;
7173;SDS011;3628;48.654;8.932;2023-09-12T01:51:22;5.22;;;4.25;;
7173;SDS011;3628;48.654;8.932;2023-09-12T01:53:50;7.45;;;3.63;;
7173;SDS011;3628;48.654;8.932;2023-09-12T01:56:16;9.77;;;3.95;;
7173;SDS011;3628;48.654;8.932;2023-09-12T01:58:42;3.75;;;3.28;;
7173;SDS011;3628;48.654;8.932;2023-09-12T02:01:09;7.13;;;4.00;;
7173;SDS011;3628;48.654;8.932;2023-09-12T02:03:36;7.65;;;4.03;;
7173;SDS011;3628;48.654;8.932;2023-09-12T02:06:02;8.15;;;4.32;;
7173;SDS011;3628;48.654;8.932;2023-09-12T02:08:27;4.63;;;3.97;;
7173;SDS011;3628;48.654;8.932;2023-09-12T02:10:53;6.00;;;4.05;;
7173;SDS011;3628;48.654;8.932;2023-09-12T02:13:19;5.45;;;3.95;;
7173;SDS011;3628;48.654;8.932;2023-09-12T02:15:45;8.45;;;4.07;;
7173;SDS011;3628;48.654;8.932;2023-09-12T02:18:10;7.05;;;3.90;;
7173;SDS011;3628;48.654;8.932;2023-09-12T02:20:38;7.68;;;4.10;;
7173;SDS011;3628;48.654;8.932;2023-09-12T02:23:06;7.07;;;4.22;;
7173;SDS011;3628;48.654;8.932;2023-09-12T02:25:32;4.93;;;4.18;;
7173;SDS011;3628;48.654;8.932;2023-09-12T02:27:57;8.20;;;4.22;;
7173;SDS011;3628;48.654;8.932;2023-09-12T02:30:23;7.30;;;4.22;;
7173;SDS011;3628;48.654;8.932;2023-09-12T02:32:48;5.88;;;4.10;;
7173;SDS011;3628;48.654;8.932;2023-09-12T02:35:14;6.68;;;4.40;;
7173;SDS011;3628;48.654;8.932;2023-09-12T02:37:39;9.68;;;4.30;;
7173;SDS011;3628;48.654;8.932;2023-09-12T02:40:05;7.70;;;4.20;;
7173;SDS011;3628;48.654;8.932;2023-09-12T02:42:32;7.43;;;4.10;;
7173;SDS011;3628;48.654;8.932;2023-09-12T02:44:57;8.20;;;4.75;;
7173;SDS011;3628;48.654;8.932;2023-09-12T02:47:23;7.25;;;4.28;;
7173;SDS011;3628;48.654;8.932;2023-09-12T02:49:49;5.47;;;3.70;;
7173;SDS011;3628;48.654;8.932;2023-09-12T02:52:14;7.32;;;4.50;;
7173;SDS011;3628;48.654;8.932;2023-09-12T02:54:40;7.53;;;3.75;;
7173;SDS011;3628;48.654;8.932;2023-09-12T02:57:05;5.05;;;3.90;;
7173;SDS011;3628;48.654;8.932;2023-09-12T02:59:31;6.25;;;4.50;;
7173;SDS011;3628;48.654;8.932;2023-09-12T03:01:56;6.65;;;4.43;;
7173;SDS011;3628;48.654;8.932;2023-09-12T03:04:23;4.53;;;3.42;;
7173;SDS011;3628;48.654;8.932;2023-09-12T03:06:50;5.25;;;4.20;;
7173;SDS011;3628;48.654;8.932;2023-09-12T03:09:16;6.10;;;4.57;;
7173;SDS011;3628;48.654;8.932;2023-09-12T03:11:42;9.95;;;4.55;;
7173;SDS011;3628;48.654;8.932;2023-09-12T03:14:07;6.35;;;4.55;;
7173;SDS011;3628;48.654;8.932;2023-09-12T03:16:33;8.38;;;4.40;;
7173;SDS011;3628;48.654;8.932;2023-09-12T03:18:58;5.78;;;4.18;;
7173;SDS011;3628;48.654;8.932;2023-09-12T03:21:26;5.65;;;4.28;;
7173;SDS011;3628;48.654;8.932;2023-09-12T03:23:51;6.32;;;4.32;;
7173;SDS011;3628;48.654;8.932;2023-09-12T03:26:17;7.38;;;4.75;;
7173;SDS011;3628;48.654;8.932;2023-09-12T03:28:42;7.18;;;4.80;;
7173;SDS011;3628;48.654;8.932;2023-09-12T03:31:09;7.38;;;3.90;;
7173;SDS011;3628;48.654;8.932;2023-09-12T03:33:42;8.23;;;4.40;;
7173;SDS011;3628;48.654;8.932;2023-09-12T03:36:08;7.93;;;5.00;;
7173;SDS011;3628;48.654;8.932;2023-09-12T03:38:34;5.93;;;4.57;;
7173;SDS011;3628;48.654;8.932;2023-09-12T03:41:00;7.78;;;4.72;;
7173;SDS011;3628;48.654;8.932;2023-09-12T03:43:26;11.20;;;4.85;;
7173;SDS011;3628;48.654;8.932;2023-09-12T03:45:52;6.43;;;4.63;;
7173;SDS011;3628;48.654;8.932;2023-09-12T03:48:18;7.93;;;4.60;;
7173;SDS011;3628;48.654;8.932;2023-09-12T03:50:44;8.68;;;4.53;;
7173;SDS011;3628;48.654;8.932;2023-09-12T03:53:10;5.82;;;5.15;;
7173;SDS011;3628;48.654;8.932;2023-09-12T03:55:36;4.85;;;4.30;;
7173;SDS011;3628;48.654;8.932;2023-09-12T03:58:01;8.73;;;4.63;;
7173;SDS011;3628;48.654;8.932;2023-09-12T04:00:27;8.07;;;4.50;;
7173;SDS011;3628;48.654;8.932;2023-09-12T04:02:53;7.30;;;4.15;;
7173;SDS011;3628;48.654;8.932;2023-09-12T04:05:18;5.70;;;4.30;;
7173;SDS011;3628;48.654;8.932;2023-09-12T04:07:44;6.50;;;4.50;;
7173;SDS011;3628;48.654;8.932;2023-09-12T04:10:09;6.43;;;4.80;;
7173;SDS011;3628;48.654;8.932;2023-09-12T04:12:35;9.43;;;5.05;;
7173;SDS011;3628;48.654;8.932;2023-09-12T04:15:00;7.90;;;5.18;;
7173;SDS011;3628;48.654;8.932;2023-09-12T04:17:26;7.55;;;4.65;;
7173;SDS011;3628;48.654;8.932;2023-09-12T04:19:52;7.03;;;4.80;;
7173;SDS011;3628;48.654;8.932;2023-09-12T04:22:17;7.57;;;5.18;;
7173;SDS011;3628;48.654;8.932;2023-09-12T04:24:43;11.05;;;5.05;;
7173;SDS011;3628;48.654;8.932;2023-09-12T04:27:08;4.63;;;4.10;;
7173;SDS011;3628;48.654;8.932;2023-09-12T04:29:34;7.20;;;4.35;;
7173;SDS011;3628;48.654;8.932;2023-09-12T04:32:01;6.28;;;4.72;;
7173;SDS011;3628;48.654;8.932;2023-09-12T04:34:30;5.65;;;4.63;;
7173;SDS011;3628;48.654;8.932;2023-09-12T04:36:56;7.82;;;5.00;;
7173;SDS011;3628;48.654;8.932;2023-09-12T04:39:22;8.48;;;4.68;;
7173;SDS011;3628;48.654;8.932;2023-09-12T04:41:48;6.40;;;4.43;;
7173;SDS011;3628;48.654;8.932;2023-09-12T04:44:13;8.18;;;5.03;;
7173;SDS011;3628;48.654;8.932;2023-09-12T04:46:39;8.35;;;4.78;;
7173;SDS011;3628;48.654;8.932;2023-09-12T04:49:05;8.32;;;5.00;;
7173;SDS011;3628;48.654;8.932;2023-09-12T04:51:30;8.80;;;4.60;;
7173;SDS011;3628;48.654;8.932;2023-09-12T04:53:56;9.55;;;5.53;;
7173;SDS011;3628;48.654;8.932;2023-09-12T04:56:21;8.45;;;4.57;;
7173;SDS011;3628;48.654;8.932;2023-09-12T04:58:49;7.88;;;4.20;;
7173;SDS011;3628;48.654;8.932;2023-09-12T05:01:15;8.43;;;5.22;;
7173;SDS011;3628;48.654;8.932;2023-09-12T05:03:41;10.45;;;4.75;;
7173;SDS011;3628;48.654;8.932;2023-09-12T05:06:07;8.77;;;4.63;;
7173;SDS011;3628;48.654;8.932;2023-09-12T05:08:32;9.48;;;5.40;;
7173;SDS011;3628;48.654;8.932;2023-09-12T05:10:58;8.15;;;4.07;;
7173;SDS011;3628;48.654;8.932;2023-09-12T05:13:23;9.65;;;4.30;;
7173;SDS011;3628;48.654;8.932;2023-09-12T05:15:49;4.80;;;4.05;;
7173;SDS011;3628;48.654;8.932;2023-09-12T05:18:15;7.07;;;4.60;;
7173;SDS011;3628;48.654;8.932;2023-09-12T05:20:40;6.18;;;4.20;;
7173;SDS011;3628;48.654;8.932;2023-09-12T05:23:06;4.63;;;4.18;;
7173;SDS011;3628;48.654;8.932;2023-09-12T05:25:31;7.82;;;4.78;;
7173;SDS011;3628;48.654;8.932;2023-09-12T05:27:57;4.95;;;4.13;;
7173;SDS011;3628;48.654;8.932;2023-09-12T05:30:22;10.10;;;5.68;;
7173;SDS011;3628;48.654;8.932;2023-09-12T05:32:48;9.88;;;5.07;;
7173;SDS011;3628;48.654;8.932;2023-09-12T05:35:14;10.43;;;5.63;;
7173;SDS011;3628;48.654;8.932;2023-09-12T05:37:39;6.72;;;4.35;;
7173;SDS011;3628;48.654;8.932;2023-09-12T05:40:06;8.15;;;5.20;;
7173;SDS011;3628;48.654;8.932;2023-09-12T05:42:32;10.38;;;5.35;;
7173;SDS011;3628;48.654;8.932;2023-09-12T05:44:57;7.63;;;5.50;;
7173;SDS011;3628;48.654;8.932;2023-09-12T05:47:23;7.70;;;4.50;;
7173;SDS011;3628;48.654;8.932;2023-09-12T05:49:48;13.13;;;4.53;;
7173;SDS011;3628;48.654;8.932;2023-09-12T05:52:14;6.80;;;5.40;;
7173;SDS011;3628;48.654;8.932;2023-09-12T05:54:40;8.20;;;5.05;;
7173;SDS011;3628;48.654;8.932;2023-09-12T05:57:06;10.05;;;5.28;;
7173;SDS011;3628;48.654;8.932;2023-09-12T05:59:35;11.35;;;4.22;;
7173;SDS011;3628;48.654;8.932;2023-09-12T06:02:02;9.20;;;5.43;;
7173;SDS011;3628;48.654;8.932;2023-09-12T06:04:27;5.25;;;4.55;;
7173;SDS011;3628;48.654;8.932;2023-09-12T06:06:53;12.43;;;5.18;;
7173;SDS011;3628;48.654;8.932;2023-09-12T06:09:18;8.32;;;5.20;;
7173;SDS011;3628;48.654;8.932;2023-09-12T06:11:44;7.55;;;4.63;;
7173;SDS011;3628;48.654;8.932;2023-09-12T06:14:09;6.15;;;4.75;;
7173;SDS011;3628;48.654;8.932;2023-09-12T06:16:35;10.40;;;4.40;;
7173;SDS011;3628;48.654;8.932;2023-09-12T06:19:01;6.13;;;4.55;;
7173;SDS011;3628;48.654;8.932;2023-09-12T06:21:26;10.63;;;5.30;;
7173;SDS011;3628;48.654;8.932;2023-09-12T06:24:07;10.57;;;5.03;;
7173;SDS011;3628;48.654;8.932;2023-09-12T06:26:35;7.28;;;5.38;;
7173;SDS011;3628;48.654;8.932;2023-09-12T06:29:01;10.50;;;4.53;;
7173;SDS011;3628;48.654;8.932;2023-09-12T06:31:27;7.05;;;4.50;;
7173;SDS011;3628;48.654;8.932;2023-09-12T06:33:53;8.68;;;4.38;;
7173;SDS011;3628;48.654;8.932;2023-09-12T06:36:18;6.85;;;5.10;;
7173;SDS011;3628;48.654;8.932;2023-09-12T06:38:44;8.18;;;5.15;;
7173;SDS011;3628;48.654;8.932;2023-09-12T06:41:09;5.53;;;4.03;;
7173;SDS011;3628;48.654;8.932;2023-09-12T06:43:35;8.85;;;5.03;;
7173;SDS011;3628;48.654;8.932;2023-09-12T06:46:00;9.13;;;4.47;;
7173;SDS011;3628;48.654;8.932;2023-09-12T06:48:26;4.90;;;4.22;;
7173;SDS011;3628;48.654;8.932;2023-09-12T06:50:52;10.20;;;5.03;;
7173;SDS011;3628;48.654;8.932;2023-09-12T06:53:19;9.32;;;5.70;;
7173;SDS011;3628;48.654;8.932;2023-09-12T06:55:44;11.88;;;5.93;;
7173;SDS011;3628;48.654;8.932;2023-09-12T06:58:10;8.15;;;5.78;;
7173;SDS011;3628;48.654;8.932;2023-09-12T07:00:36;8.98;;;5.80;;
7173;SDS011;3628;48.654;8.932;2023-09-12T07:03:01;7.78;;;5.60;;
7173;SDS011;3628;48.654;8.932;2023-09-12T07:05:27;18.25;;;7.07;;
7173;SDS011;3628;48.654;8.932;2023-09-12T07:07:53;9.23;;;5.07;;
7173;SDS011;3628;48.654;8.932;2023-09-12T07:10:18;6.70;;;5.15;;
7173;SDS011;3628;48.654;8.932;2023-09-12T07:12:44;7.13;;;5.30;;
7173;SDS011;3628;48.654;8.932;2023-09-12T07:15:10;6.13;;;4.95;;
7173;SDS011;3628;48.654;8.932;2023-09-12T07:17:35;9.40;;;5.53;;
7173;SDS011;3628;48.654;8.932;2023-09-12T07:20:01;8.68;;;5.20;;
7173;SDS011;3628;48.654;8.932;2023-09-12T07:22:27;7.15;;;4.90;;
7173;SDS011;3628;48.654;8.932;2023-09-12T07:24:52;8.32;;;5.32;;
7173;SDS011;3628;48.654;8.932;2023-09-12T07:27:18;8.23;;;5.55;;
7173;SDS011;3628;48.654;8.932;2023-09-12T07:29:43;10.73;;;4.97;;
7173;SDS011;3628;48.654;8.932;2023-09-12T07:32:09;7.30;;;5.35;;
7173;SDS011;3628;48.654;8.932;2023-09-12T07:34:34;6.53;;;5.45;;
7173;SDS011;3628;48.654;8.932;2023-09-12T07:37:00;15.73;;;5.63;;
7173;SDS011;3628;48.654;8.932;2023-09-12T07:39:26;8.10;;;5.03;;
7173;SDS011;3628;48.654;8.932;2023-09-12T07:41:51;9.27;;;5.30;;
7173;SDS011;3628;48.654;8.932;2023-09-12T07:44:17;6.35;;;5.53;;
7173;SDS011;3628;48.654;8.932;2023-09-12T07:46:43;9.07;;;5.32;;
7173;SDS011;3628;48.654;8.932;2023-09-12T07:49:09;7.82;;;5.57;;
7173;SDS011;3628;48.654;8.932;2023-09-12T07:51:34;6.03;;;5.18;;
7173;SDS011;3628;48.654;8.932;2023-09-12T07:54:00;5.75;;;5.18;;
7173;SDS011;3628;48.654;8.932;2023-09-12T07:56:26;7.00;;;5.15;;
7173;SDS011;3628;48.654;8.932;2023-09-12T07:58:52;6.10;;;5.28;;
7173;SDS011;3628;48.654;8.932;2023-09-12T08:01:18;8.10;;;5.38;;
7173;SDS011;3628;48.654;8.932;2023-09-12T08:03:43;6.70;;;5.28;;
7173;SDS011;3628;48.654;8.932;2023-09-12T08:06:09;9.07;;;5.53;;
7173;SDS011;3628;48.654;8.932;2023-09-12T08:08:35;5.85;;;5.13;;
7173;SDS011;3628;48.654;8.932;2023-09-12T08:11:00;9.55;;;5.13;;
7173;SDS011;3628;48.654;8.932;2023-09-12T08:13:27;9.15;;;5.07;;
7173;SDS011;3628;48.654;8.932;2023-09-12T08:15:54;6.80;;;5.57;;
7173;SDS011;3628;48.654;8.932;2023-09-12T08:18:19;5.70;;;5.00;;
7173;SDS011;3628;48.654;8.932;2023-09-12T08:20:45;5.78;;;5.22;;
7173;SDS011;3628;48.654;8.932;2023-09-12T08:23:11;7.78;;;5.72;;
7173;SDS011;3628;48.654;8.932;2023-09-12T08:25:36;7.95;;;5.35;;
7173;SDS011;3628;48.654;8.932;2023-09-12T08:28:02;5.63;;;5.13;;
7173;SDS011;3628;48.654;8.932;2023-09-12T08:30:28;7.75;;;5.22;;
7173;SDS011;3628;48.654;8.932;2023-09-12T08:32:56;6.43;;;4.80;;
7173;SDS011;3628;48.654;8.932;2023-09-12T08:35:22;8.48;;;4.95;;
7173;SDS011;3628;48.654;8.932;2023-09-12T08:37:47;7.50;;;4.90;;
7173;SDS011;3628;48.654;8.932;2023-09-12T08:40:13;6.20;;;4.82;;
7173;SDS011;3628;48.654;8.932;2023-09-12T08:45:11;7.60;;;4.60;;
7173;SDS011;3628;48.654;8.932;2023-09-12T08:47:41;8.07;;;4.70;;
7173;SDS011;3628;48.654;8.932;2023-09-12T08:50:15;8.63;;;4.80;;
7173;SDS011;3628;48.654;8.932;2023-09-12T08:52:45;5.70;;;4.20;;
7173;SDS011;3628;48.654;8.932;2023-09-12T08:55:12;4.43;;;4.03;;
7173;SDS011;3628;48.654;8.932;2023-09-12T08:57:38;8.27;;;4.18;;
7173;SDS011;3628;48.654;8.932;2023-09-12T09:00:06;5.00;;;4.18;;
7173;SDS011;3628;48.654;8.932;2023-09-12T09:02:37;5.53;;;4.22;;
7173;SDS011;3628;48.654;8.932;2023-09-12T09:05:05;5.50;;;4.40;;
7173;SDS011;3628;48.654;8.932;2023-09-12T09:07:41;4.82;;;4.35;;
7173;SDS011;3628;48.654;8.932;2023-09-12T09:10:09;5.15;;;4.63;;
7173;SDS011;3628;48.654;8.932;2023-09-12T09:12:39;9.05;;;4.97;;
7173;SDS011;3628;48.654;8.932;2023-09-12T09:15:21;7.40;;;4.68;;
7173;SDS011;3628;48.654;8.932;2023-09-12T09:17:54;7.35;;;3.83;;
7173;SDS011;3628;48.654;8.932;2023-09-12T09:20:21;5.18;;;4.68;;
7173;SDS011;3628;48.654;8.932;2023-09-12T09:22:58;4.32;;;3.35;;
7173;SDS011;3628;48.654;8.932;2023-09-12T09:25:33;6.00;;;4.13;;
7173;SDS011;3628;48.654;8.932;2023-09-12T09:28:02;5.38;;;3.60;;
7173;SDS011;3628;48.654;8.932;2023-09-12T09:30:42;5.15;;;3.90;;
7173;SDS011;3628;48.654;8.932;2023-09-12T09:33:10;7.00;;;3.70;;
7173;SDS011;3628;48.654;8.932;2023-09-12T09:35:36;8.52;;;3.72;;
7173;SDS011;3628;48.654;8.932;2023-09-12T09:38:04;6.95;;;3.70;;
7173;SDS011;3628;48.654;8.932;2023-09-12T09:40:31;7.32;;;3.83;;
7173;SDS011;3628;48.654;8.932;2023-09-12T09:42:58;10.57;;;3.85;;
7173;SDS011;3628;48.654;8.932;2023-09-12T09:45:25;5.13;;;3.88;;
7173;SDS011;3628;48.654;8.932;2023-09-12T09:47:51;6.20;;;3.55;;
7173;SDS011;3628;48.654;8.932;2023-09-12T09:50:17;5.57;;;3.88;;
7173;SDS011;3628;48.654;8.932;2023-09-12T09:52:43;7.22;;;4.00;;
7173;SDS011;3628;48.654;8.932;2023-09-12T09:55:15;6.25;;;3.20;;
7173;SDS011;3628;48.654;8.932;2023-09-12T09:57:40;7.03;;;3.53;;
7173;SDS011;3628;48.654;8.932;2023-09-12T10:00:06;4.88;;;3.53;;
7173;SDS011;3628;48.654;8.932;2023-09-12T10:02:36;6.82;;;3.60;;
7173;SDS011;3628;48.654;8.932;2023-09-12T10:05:04;7.03;;;3.42;;
7173;SDS011;3628;48.654;8.932;2023-09-12T10:07:33;4.97;;;3.10;;
7173;SDS011;3628;48.654;8.932;2023-09-12T10:10:02;9.45;;;3.45;;
7173;SDS011;3628;48.654;8.932;2023-09-12T10:12:30;5.72;;;3.30;;
7173;SDS011;3628;48.654;8.932;2023-09-12T10:14:57;4.22;;;3.40;;
7173;SDS011;3628;48.654;8.932;2023-09-12T10:17:26;5.30;;;3.38;;
7173;SDS011;3628;48.654;8.932;2023-09-12T10:19:56;4.22;;;3.40;;
7173;SDS011;3628;48.654;8.932;2023-09-12T10:22:34;6.88;;;4.05;;
7173;SDS011;3628;48.654;8.932;2023-09-12T10:25:04;5.30;;;3.60;;
7173;SDS011;3628;48.654;8.932;2023-09-12T10:27:30;3.85;;;3.47;;
7173;SDS011;3628;48.654;8.932;2023-09-12T10:29:57;5.80;;;4.20;;
7173;SDS011;3628;48.654;8.932;2023-09-12T10:32:25;4.43;;;3.22;;
7173;SDS011;3628;48.654;8.932;2023-09-12T10:34:52;6.88;;;2.83;;
7173;SDS011;3628;48.654;8.932;2023-09-12T10:37:19;6.95;;;3.45;;
7173;SDS011;3628;48.654;8.932;2023-09-12T10:39:47;6.10;;;3.63;;
7173;SDS011;3628;48.654;8.932;2023-09-12T10:42:14;5.30;;;3.40;;
7173;SDS011;3628;48.654;8.932;2023-09-12T10:44:41;6.13;;;3.72;;
7173;SDS011;3628;48.654;8.932;2023-09-12T10:47:08;5.75;;;3.53;;
7173;SDS011;3628;48.654;8.932;2023-09-12T10:49:35;6.55;;;3.10;;
7173;SDS011;3628;48.654;8.932;2023-09-12T10:52:01;3.50;;;3.10;;
7173;SDS011;3628;48.654;8.932;2023-09-12T10:54:38;6.00;;;3.03;;
7173;SDS011;3628;48.654;8.932;2023-09-12T10:57:08;7.40;;;3.40;;
7173;SDS011;3628;48.654;8.932;2023-09-12T11:02:32;7.35;;;3.60;;
7173;SDS011;3628;48.654;8.932;2023-09-12T11:05:00;4.35;;;3.35;;
7173;SDS011;3628;48.654;8.932;2023-09-12T11:12:44;3.88;;;3.58;;
7173;SDS011;3628;48.654;8.932;2023-09-12T11:15:14;6.43;;;3.75;;
7173;SDS011;3628;48.654;8.932;2023-09-12T11:17:41;5.63;;;3.70;;
7173;SDS011;3628;48.654;8.932;2023-09-12T11:20:07;6.15;;;4.07;;
7173;SDS011;3628;48.654;8.932;2023-09-12T11:22:37;4.72;;;3.70;;
7173;SDS011;3628;48.654;8.932;2023-09-12T11:25:04;4.25;;;3.80;;
7173;SDS011;3628;48.654;8.932;2023-09-12T11:28:02;4.22;;;3.80;;
7173;SDS011;3628;48.654;8.932;2023-09-12T11:30:30;6.78;;;3.78;;
7173;SDS011;3628;48.654;8.932;2023-09-12T11:32:56;6.15;;;4.07;;
7173;SDS011;3628;48.654;8.932;2023-09-12T11:35:27;4.80;;;3.83;;
7173;SDS011;3628;48.654;8.932;2023-09-12T11:37:57;5.80;;;3.50;;
7173;SDS011;3628;48.654;8.932;2023-09-12T11:42:59;5.00;;;4.03;;
7173;SDS011;3628;48.654;8.932;2023-09-12T11:45:25;4.93;;;3.67;;
7173;SDS011;3628;48.654;8.932;2023-09-12T11:47:51;4.40;;;3.70;;
7173;SDS011;3628;48.654;8.932;2023-09-12T11:50:26;4.55;;;3.17;;
7173;SDS011;3628;48.654;8.932;2023-09-12T11:53:02;4.85;;;3.03;;
7173;SDS011;3628;48.654;8.932;2023-09-12T11:55:33;5.43;;;3.38;;
7173;SDS011;3628;48.654;8.932;2023-09-12T11:58:07;5.07;;;3.10;;
7173;SDS011;3628;48.654;8.932;2023-09-12T12:00:33;5.35;;;3.20;;
7173;SDS011;3628;48.654;8.932;2023-09-12T12:02:58;6.20;;;3.50;;
7173;SDS011;3628;48.654;8.932;2023-09-12T12:05:24;4.43;;;3.80;;
7173;SDS011;3628;48.654;8.932;2023-09-12T12:07:50;5.03;;;3.60;;
7173;SDS011;3628;48.654;8.932;2023-09-12T12:10:16;6.72;;;3.67;;
7173;SDS011;3628;48.654;8.932;2023-09-12T12:12:45;3.78;;;3.45;;
7173;SDS011;3628;48.654;8.932;2023-09-12T12:15:11;4.10;;;3.67;;
7173;SDS011;3628;48.654;8.932;2023-09-12T12:17:37;5.90;;;3.65;;
7173;SDS011;3628;48.654;8.932;2023-09-12T12:20:06;5.25;;;3.42;;
7173;SDS011;3628;48.654;8.932;2023-09-12T12:22:39;7.40;;;3.17;;
7173;SDS011;3628;48.654;8.932;2023-09-12T12:25:08;3.85;;;3.10;;
7173;SDS011;3628;48.654;8.932;2023-09-12T12:27:38;3.55;;;3.15;;
7173;SDS011;3628;48.654;8.932;2023-09-12T12:30:05;5.93;;;3.78;;
7173;SDS011;3628;48.654;8.932;2023-09-12T12:32:36;4.32;;;3.92;;
7173;SDS011;3628;48.654;8.932;2023-09-12T12:35:05;5.93;;;3.50;;
7173;SDS011;3628;48.654;8.932;2023-09-12T12:37:32;4.03;;;3.40;;
7173;SDS011;3628;48.654;8.932;2023-09-12T12:39:58;3.90;;;3.55;;
7173;SDS011;3628;48.654;8.932;2023-09-12T12:42:25;3.88;;;3.45;;
7173;SDS011;3628;48.654;8.932;2023-09-12T12:45:00;5.25;;;3.38;;
7173;SDS011;3628;48.654;8.932;2023-09-12T12:47:27;4.47;;;3.50;;
7173;SDS011;3628;48.654;8.932;2023-09-12T12:49:53;3.63;;;3.33;;
7173;SDS011;3628;48.654;8.932;2023-09-12T12:52:23;3.78;;;3.38;;
7173;SDS011;3628;48.654;8.932;2023-09-12T12:54:50;4.50;;;3.30;;
7173;SDS011;3628;48.654;8.932;2023-09-12T12:57:20;4.80;;;3.55;;
7173;SDS011;3628;48.654;8.932;2023-09-12T12:59:47;3.65;;;3.30;;
7173;SDS011;3628;48.654;8.932;2023-09-12T13:02:13;5.18;;;3.53;;
7173;SDS011;3628;48.654;8.932;2023-09-12T13:04:39;10.88;;;3.85;;
7173;SDS011;3628;48.654;8.932;2023-09-12T13:07:05;6.88;;;3.95;;
7173;SDS011;3628;48.654;8.932;2023-09-12T13:09:31;9.60;;;4.35;;
7173;SDS011;3628;48.654;8.932;2023-09-12T13:11:58;14.60;;;4.72;;
7173;SDS011;3628;48.654;8.932;2023-09-12T13:14:24;14.10;;;4.00;;
7173;SDS011;3628;48.654;8.932;2023-09-12T13:16:55;6.20;;;4.18;;
7173;SDS011;3628;48.654;8.932;2023-09-12T13:19:24;13.18;;;4.63;;
7173;SDS011;3628;48.654;8.932;2023-09-12T13:21:51;6.18;;;4.40;;
7173;SDS011;3628;48.654;8.932;2023-09-12T13:24:16;7.72;;;4.57;;
7173;SDS011;3628;48.654;8.932;2023-09-12T13:26:42;7.82;;;4.70;;
7173;SDS011;3628;48.654;8.932;2023-09-12T13:29:08;7.70;;;4.57;;
7173;SDS011;3628;48.654;8.932;2023-09-12T13:31:33;10.20;;;4.30;;
7173;SDS011;3628;48.654;8.932;2023-09-12T13:33:59;7.25;;;4.65;;
7173;SDS011;3628;48.654;8.932;2023-09-12T13:36:24;13.68;;;4.55;;
7173;SDS011;3628;48.654;8.932;2023-09-12T13:38:50;7.38;;;4.22;;
7173;SDS011;3628;48.654;8.932;2023-09-12T13:41:16;8.15;;;3.90;;
7173;SDS011;3628;48.654;8.932;2023-09-12T13:43:43;5.85;;;4.20;;
7173;SDS011;3628;48.654;8.932;2023-09-12T13:46:11;8.90;;;4.55;;
7173;SDS011;3628;48.654;8.932;2023-09-12T13:48:37;5.38;;;4.38;;
7173;SDS011;3628;48.654;8.932;2023-09-12T13:51:02;4.95;;;4.13;;
7173;SDS011;3628;48.654;8.932;2023-09-12T13:53:28;8.85;;;4.40;;
7173;SDS011;3628;48.654;8.932;2023-09-12T13:55:54;8.43;;;4.47;;
7173;SDS011;3628;48.654;8.932;2023-09-12T13:58:22;7.78;;;4.20;;
7173;SDS011;3628;48.654;8.932;2023-09-12T14:00:48;7.85;;;4.28;;
7173;SDS011;3628;48.654;8.932;2023-09-12T14:03:13;7.60;;;4.30;;
7173;SDS011;3628;48.654;8.932;2023-09-12T14:05:39;7.72;;;4.07;;
7173;SDS011;3628;48.654;8.932;2023-09-12T14:08:05;7.78;;;3.85;;
7173;SDS011;3628;48.654;8.932;2023-09-12T14:10:31;10.95;;;4.53;;
7173;SDS011;3628;48.654;8.932;2023-09-12T14:12:56;8.55;;;3.83;;
7173;SDS011;3628;48.654;8.932;2023-09-12T14:15:22;6.10;;;4.30;;
7173;SDS011;3628;48.654;8.932;2023-09-12T14:17:48;7.72;;;4.22;;
7173;SDS011;3628;48.654;8.932;2023-09-12T14:20:13;6.72;;;4.18;;
7173;SDS011;3628;48.654;8.932;2023-09-12T14:22:42;6.18;;;4.10;;
7173;SDS011;3628;48.654;8.932;2023-09-12T14:25:08;9.55;;;4.40;;
7173;SDS011;3628;48.654;8.932;2023-09-12T14:27:39;9.63;;;4.43;;
7173;SDS011;3628;48.654;8.932;2023-09-12T14:30:06;7.95;;;4.38;;
7173;SDS011;3628;48.654;8.932;2023-09-12T14:32:32;7.80;;;4.22;;
7173;SDS011;3628;48.654;8.932;2023-09-12T14:34:57;8.25;;;4.25;;
7173;SDS011;3628;48.654;8.932;2023-09-12T14:37:23;6.05;;;4.30;;
7173;SDS011;3628;48.654;8.932;2023-09-12T14:39:52;7.35;;;4.20;;
7173;SDS011;3628;48.654;8.932;2023-09-12T14:42:17;6.90;;;4.60;;
7173;SDS011;3628;48.654;8.932;2023-09-12T14:44:43;8.50;;;4.15;;
7173;SDS011;3628;48.654;8.932;2023-09-12T14:47:08;5.97;;;4.03;;
7173;SDS011;3628;48.654;8.932;2023-09-12T14:49:34;6.93;;;4.25;;
7173;SDS011;3628;48.654;8.932;2023-09-12T14:52:00;5.45;;;3.88;;
7173;SDS011;3628;48.654;8.932;2023-09-12T14:54:26;5.20;;;4.38;;
7173;SDS011;3628;48.654;8.932;2023-09-12T14:56:51;4.90;;;4.32;;
7173;SDS011;3628;48.654;8.932;2023-09-12T14:59:17;8.68;;;4.05;;
7173;SDS011;3628;48.654;8.932;2023-09-12T15:01:43;5.03;;;4.05;;
7173;SDS011;3628;48.654;8.932;2023-09-12T15:04:09;6.10;;;4.82;;
7173;SDS011;3628;48.654;8.932;2023-09-12T15:06:36;6.93;;;4.55;;
7173;SDS011;3628;48.654;8.932;2023-09-12T15:09:02;4.88;;;3.72;;
7173;SDS011;3628;48.654;8.932;2023-09-12T15:11:27;6.90;;;4.10;;
7173;SDS011;3628;48.654;8.932;2023-09-12T15:13:53;9.63;;;4.05;;
7173;SDS011;3628;48.654;8.932;2023-09-12T15:16:18;8.02;;;4.57;;
7173;SDS011;3628;48.654;8.932;2023-09-12T15:18:44;4.38;;;3.97;;
7173;SDS011;3628;48.654;8.932;2023-09-12T15:21:10;8.38;;;4.22;;
7173;SDS011;3628;48.654;8.932;2023-09-12T15:23:35;8.77;;;4.25;;
7173;SDS011;3628;48.654;8.932;2023-09-12T15:26:01;6.43;;;4.28;;
7173;SDS011;3628;48.654;8.932;2023-09-12T15:28:26;7.35;;;4.30;;
7173;SDS011;3628;48.654;8.932;2023-09-12T15:30:52;4.28;;;3.92;;